Time;durP1;ratioP1;P1;durP2;ratioP2;P2;SDS_P1;SDS_P2;PMS_P1;PMS_P2;Temp;Humidity;BMP_temperature;BMP_pressure;BME280_temperature;BME280_humidity;BME280_pressure;Samples;Min_cycle;Max_cycle;Signal;HPM_P1;HPM_P2
2022/05/23 00:00:12;;;;;;;10.30;6.15;;;;;;;22.16;77.95;97852.91;4851472;28;20046;-67
2022/05/23 00:02:38;;;;;;;9.40;5.72;;;;;;;22.17;78.32;97859.00;4757196;28;20237;-68
2022/05/23 00:05:04;;;;;;;9.05;5.90;;;;;;;22.24;77.82;97870.25;4781910;28;20073;-67
2022/05/23 00:07:32;;;;;;;8.68;6.15;;;;;;;22.21;78.09;97852.97;4861421;28;20031;-68
2022/05/23 00:09:59;;;;;;;8.02;6.00;;;;;;;22.19;78.11;97860.34;4813880;28;20038;-63
2022/05/23 00:12:25;;;;;;;9.35;5.82;;;;;;;22.02;78.12;97822.47;4822640;28;20093;-67
2022/05/23 00:14:51;;;;;;;8.13;5.65;;;;;;;22.26;77.96;97849.66;4854855;28;20837;-67
2022/05/23 00:17:18;;;;;;;8.55;5.45;;;;;;;22.17;78.59;97841.25;4853775;28;20038;-63
2022/05/23 00:19:44;;;;;;;8.32;5.95;;;;;;;22.10;78.50;97837.16;4767816;28;21189;-63
2022/05/23 00:22:11;;;;;;;9.05;5.90;;;;;;;22.07;79.02;97831.31;4857358;28;20054;-67
2022/05/23 00:24:37;;;;;;;8.35;6.43;;;;;;;21.84;79.56;97818.97;4852139;28;20031;-68
2022/05/23 00:27:03;;;;;;;8.10;5.88;;;;;;;21.67;78.97;97773.97;4800754;28;20042;-62
2022/05/23 00:29:29;;;;;;;8.82;5.90;;;;;;;21.78;79.53;97779.44;4822724;28;22114;-65
2022/05/23 00:37:23;;;;;;;9.18;5.97;;;;;;;21.26;82.57;97733.50;4803905;28;20092;-61
2022/05/23 00:39:48;;;;;;;9.60;6.72;;;;;;;21.38;82.73;97756.47;4824138;28;21063;-68
2022/05/23 00:45:02;;;;;;;8.50;5.93;;;;;;;21.38;82.10;97753.81;4863666;28;20113;-67
2022/05/23 00:47:28;;;;;;;10.57;5.85;;;;;;;21.36;81.53;97761.19;4771645;28;21402;-67
2022/05/23 00:49:54;;;;;;;8.65;5.68;;;;;;;21.37;81.38;97768.88;4846222;28;20046;-68
2022/05/23 00:52:32;;;;;;;10.98;5.88;;;;;;;21.26;81.67;97765.22;4824463;28;20022;-62
2022/05/23 00:55:00;;;;;;;10.40;5.90;;;;;;;21.00;82.14;97755.19;4806730;28;20935;-66
2022/05/23 00:57:29;;;;;;;9.35;6.20;;;;;;;21.07;82.69;97774.34;4836861;28;20049;-67
2022/05/23 00:59:54;;;;;;;8.43;6.45;;;;;;;20.86;84.50;97767.81;4839974;28;20034;-65
2022/05/23 01:02:20;;;;;;;8.02;5.57;;;;;;;21.00;83.62;97785.03;4774674;28;21040;-65
2022/05/23 01:04:47;;;;;;;11.20;6.07;;;;;;;20.77;83.48;97743.59;4781248;28;20165;-63
2022/05/23 01:07:12;;;;;;;8.75;6.10;;;;;;;21.12;83.04;97791.13;4835619;28;20066;-66
2022/05/23 01:09:38;;;;;;;12.73;5.93;;;;;;;21.08;82.97;97791.81;4840001;28;20057;-68
2022/05/23 01:12:04;;;;;;;8.98;6.03;;;;;;;21.00;83.39;97761.25;4831230;28;20022;-65
2022/05/23 01:14:50;;;;;;;10.18;6.15;;;;;;;21.02;83.41;97745.19;4806237;28;20082;-67
2022/05/23 01:17:16;;;;;;;7.95;5.93;;;;;;;21.22;83.20;97750.06;4841652;28;20034;-67
2022/05/23 01:19:42;;;;;;;9.50;6.30;;;;;;;21.34;82.95;97765.88;4856016;28;20045;-67
2022/05/23 01:22:36;;;;;;;8.43;5.78;;;;;;;21.45;82.40;97783.59;4814302;28;20058;-63
2022/05/23 01:25:26;;;;;;;11.60;6.07;;;;;;;21.59;82.24;97803.44;4786476;28;21579;-67
2022/05/23 01:27:52;;;;;;;8.48;6.07;;;;;;;21.64;81.94;97823.91;4828781;28;21468;-67
2022/05/23 01:30:18;;;;;;;10.02;5.65;;;;;;;21.66;81.81;97819.16;4853649;28;20039;-64
2022/05/23 01:32:44;;;;;;;7.85;5.63;;;;;;;21.63;81.26;97801.94;4825933;28;20778;-64
2022/05/23 01:35:10;;;;;;;8.27;5.85;;;;;;;21.81;80.64;97810.72;4806749;28;20049;-68
2022/05/23 01:37:36;;;;;;;9.95;5.88;;;;;;;21.81;80.50;97818.66;4839661;28;20816;-65
2022/05/23 01:40:03;;;;;;;8.55;5.47;;;;;;;21.49;81.74;97811.97;4858381;28;20482;-68
2022/05/23 01:42:29;;;;;;;7.93;5.35;;;;;;;21.53;81.99;97804.38;4798797;28;20041;-61
2022/05/23 01:44:54;;;;;;;7.80;5.47;;;;;;;21.45;81.96;97805.56;4841290;28;20042;-65
2022/05/23 01:47:21;;;;;;;8.48;5.22;;;;;;;21.44;81.54;97814.47;4858242;28;20066;-66
2022/05/23 01:49:47;;;;;;;11.27;5.47;;;;;;;21.50;80.94;97807.47;4823351;28;20981;-64
2022/05/23 01:52:12;;;;;;;8.40;5.47;;;;;;;21.45;81.02;97799.47;4799087;28;20034;-66
2022/05/23 01:54:39;;;;;;;8.55;5.57;;;;;;;21.57;81.07;97815.28;4859732;28;20185;-66
2022/05/23 01:57:06;;;;;;;11.13;5.18;;;;;;;21.57;80.90;97808.16;4839944;28;20047;-60
2022/05/23 02:02:17;;;;;;;8.48;5.50;;;;;;;21.70;79.69;97809.72;4823088;28;20134;-68
2022/05/23 02:04:43;;;;;;;9.02;5.63;;;;;;;21.66;79.44;97813.88;4844839;28;20050;-69
2022/05/23 02:07:08;;;;;;;7.78;5.15;;;;;;;21.50;80.81;97828.63;4836131;28;20045;-61
2022/05/23 02:09:35;;;;;;;10.93;6.10;;;;;;;21.43;81.02;97826.13;4788286;28;20035;-67
2022/05/23 02:12:00;;;;;;;7.90;5.20;;;;;;;21.30;81.73;97808.66;4852267;28;20870;-69
2022/05/23 02:14:26;;;;;;;8.35;5.60;;;;;;;21.53;81.21;97819.44;4856561;28;20038;-68
2022/05/23 02:16:51;;;;;;;10.07;5.53;;;;;;;21.50;81.00;97820.69;4795770;28;20113;-66
2022/05/23 02:22:39;;;;;;;7.40;5.25;;;;;;;21.53;80.92;97825.53;4829516;28;20120;-67
2022/05/23 02:25:06;;;;;;;9.15;5.10;;;;;;;21.06;81.69;97797.31;4855380;28;20811;-67
2022/05/23 02:27:31;;;;;;;8.93;5.30;;;;;;;21.25;82.35;97836.84;4816622;28;20027;-62
2022/05/23 02:29:58;;;;;;;9.55;5.88;;;;;;;21.05;83.46;97830.09;4811016;28;25404;-70
2022/05/23 02:32:24;;;;;;;8.15;5.82;;;;;;;21.06;83.04;97815.81;4845866;28;22180;-67
2022/05/23 02:34:50;;;;;;;9.15;5.10;;;;;;;21.21;82.31;97827.75;4865649;28;20466;-67
2022/05/23 02:37:15;;;;;;;7.78;5.70;;;;;;;21.10;81.53;97806.41;4778291;28;25377;-62
2022/05/23 02:39:41;;;;;;;7.15;5.00;;;;;;;21.20;80.96;97813.75;4843932;28;20169;-66
2022/05/23 02:42:07;;;;;;;8.23;4.82;;;;;;;21.16;81.11;97809.97;4852518;28;20196;-70
2022/05/23 02:44:34;;;;;;;7.80;5.30;;;;;;;21.18;82.21;97799.94;4792209;28;20481;-67
2022/05/23 02:47:00;;;;;;;8.40;5.70;;;;;;;21.35;81.58;97786.00;4815397;28;20035;-65
2022/05/23 02:49:25;;;;;;;8.90;5.53;;;;;;;21.12;81.78;97724.25;4841757;28;20041;-67
2022/05/23 02:51:51;;;;;;;8.48;5.63;;;;;;;21.04;81.98;97728.03;4843472;28;20027;-59
2022/05/23 02:54:16;;;;;;;8.73;5.65;;;;;;;21.19;82.12;97742.59;4782754;28;20046;-64
2022/05/23 02:56:42;;;;;;;9.15;5.18;;;;;;;21.29;81.25;97750.75;4842412;28;20042;-67
2022/05/23 02:59:07;;;;;;;11.68;6.22;;;;;;;21.23;81.92;97755.13;4872370;28;20053;-68
2022/05/23 03:01:33;;;;;;;9.23;5.50;;;;;;;21.24;81.88;97764.66;4800663;28;20793;-62
2022/05/23 03:03:58;;;;;;;10.35;5.60;;;;;;;20.84;82.25;97741.63;4829956;28;20042;-67
2022/05/23 03:06:24;;;;;;;8.90;5.40;;;;;;;20.78;83.62;97784.84;4754781;28;20042;-69
2022/05/23 03:08:50;;;;;;;7.30;5.53;;;;;;;20.88;83.71;97797.44;4849643;28;20133;-68
2022/05/23 03:11:15;;;;;;;8.20;5.60;;;;;;;20.80;84.53;97795.97;4785787;28;20118;-67
2022/05/23 03:13:41;;;;;;;10.57;5.90;;;;;;;20.84;84.58;97777.81;4835456;28;20129;-67
2022/05/23 03:16:09;;;;;;;11.60;5.90;;;;;;;20.92;84.25;97783.56;4845682;28;20023;-67
2022/05/23 03:18:34;;;;;;;11.40;6.13;;;;;;;20.99;84.16;97785.25;4817368;28;20035;-62
2022/05/23 03:21:02;;;;;;;9.23;6.18;;;;;;;21.04;83.28;97782.75;4803931;28;20141;-65
2022/05/23 03:29:00;;;;;;;9.10;6.18;;;;;;;20.74;84.95;97804.81;4827985;28;20105;-63
2022/05/23 03:31:27;;;;;;;8.50;6.10;;;;;;;20.63;85.94;97792.44;4796653;28;20528;-69
2022/05/23 03:33:53;;;;;;;8.70;5.95;;;;;;;20.78;86.29;97791.97;4849605;28;20901;-67
2022/05/23 03:36:19;;;;;;;10.70;5.90;;;;;;;20.69;86.42;97784.38;4852839;28;20773;-67
2022/05/23 03:38:44;;;;;;;9.07;6.25;;;;;;;20.57;87.39;97791.44;4766527;28;20725;-60
2022/05/23 03:41:10;;;;;;;8.80;5.85;;;;;;;20.51;88.01;97785.25;4816950;28;20035;-68
2022/05/23 03:43:36;;;;;;;8.73;5.97;;;;;;;20.57;87.85;97785.38;4851873;28;20038;-65
2022/05/23 03:46:10;;;;;;;8.02;5.95;;;;;;;20.72;86.94;97791.03;4818905;28;20483;-61
2022/05/23 03:48:36;;;;;;;12.85;6.43;;;;;;;20.83;86.50;97794.72;4771426;28;20062;-65
2022/05/23 03:51:03;;;;;;;10.30;6.47;;;;;;;20.86;85.90;97778.38;4838641;28;20044;-65
2022/05/23 03:53:29;;;;;;;11.02;6.22;;;;;;;20.96;85.82;97773.34;4850381;28;20122;-67
2022/05/23 03:55:56;;;;;;;8.90;5.93;;;;;;;20.91;85.74;97776.66;4769189;28;20039;-60
2022/05/23 03:58:22;;;;;;;8.07;5.70;;;;;;;20.77;85.96;97769.22;4821905;28;20094;-68
2022/05/23 04:00:49;;;;;;;7.05;5.40;;;;;;;20.85;85.67;97776.81;4846801;28;20342;-65
2022/05/23 04:03:19;;;;;;;10.90;5.80;;;;;;;20.81;86.06;97765.88;4804634;28;20508;-62
2022/05/23 04:05:45;;;;;;;9.80;5.88;;;;;;;20.84;85.97;97757.47;4812495;28;20102;-64
2022/05/23 04:08:11;;;;;;;8.50;6.00;;;;;;;20.92;86.06;97766.91;4854196;28;20803;-67
2022/05/23 04:10:38;;;;;;;9.10;6.15;;;;;;;20.89;86.13;97773.44;4854911;28;20045;-68
2022/05/23 04:13:04;;;;;;;7.60;5.68;;;;;;;20.98;85.66;97775.75;4767721;28;20030;-60
2022/05/23 04:15:29;;;;;;;9.98;6.20;;;;;;;21.07;85.04;97775.16;4838134;28;20945;-65
2022/05/23 04:17:55;;;;;;;9.93;6.40;;;;;;;21.21;84.69;97782.81;4855349;28;20053;-62
2022/05/23 04:20:22;;;;;;;8.88;5.68;;;;;;;21.20;83.98;97776.72;4818183;28;20038;-62
2022/05/23 04:22:47;;;;;;;8.18;5.55;;;;;;;21.24;83.99;97777.06;4790650;28;20030;-63
2022/05/23 04:25:13;;;;;;;8.82;5.72;;;;;;;21.25;83.95;97778.69;4857021;28;20134;-65
2022/05/23 04:27:39;;;;;;;8.68;6.13;;;;;;;21.24;83.90;97780.50;4855812;28;20035;-61
2022/05/23 04:30:06;;;;;;;8.63;5.47;;;;;;;21.05;83.65;97737.59;4772543;28;20639;-63
2022/05/23 04:35:16;;;;;;;9.32;5.95;;;;;;;20.82;87.25;97780.69;4863473;28;20085;-64
2022/05/23 04:37:46;;;;;;;10.52;6.82;;;;;;;20.59;87.58;97746.34;4775178;28;20891;-67
2022/05/23 04:40:15;;;;;;;9.38;6.50;;;;;;;20.85;88.25;97782.09;4850570;28;20034;-65
2022/05/23 04:42:40;;;;;;;8.95;5.90;;;;;;;20.82;89.26;97782.53;4853737;28;20729;-66
2022/05/23 04:45:07;;;;;;;10.82;6.85;;;;;;;20.81;88.89;97779.09;4795693;28;20149;-62
2022/05/23 04:50:16;;;;;;;8.52;5.65;;;;;;;20.72;88.85;97783.13;4771072;28;20643;-67
2022/05/23 04:52:42;;;;;;;9.75;5.90;;;;;;;20.84;87.65;97781.25;4791877;28;20185;-66
2022/05/23 04:55:08;;;;;;;8.70;6.50;;;;;;;20.75;86.81;97735.09;4775199;28;20046;-67
2022/05/23 04:57:34;;;;;;;9.13;5.95;;;;;;;20.85;85.54;97751.19;4759917;28;20040;-67
2022/05/23 05:00:01;;;;;;;10.40;6.35;;;;;;;21.02;85.60;97769.75;4776386;28;20038;-65
2022/05/23 05:02:26;;;;;;;8.57;6.05;;;;;;;20.90;86.29;97767.13;4752350;28;20607;-66
2022/05/23 05:04:52;;;;;;;9.40;6.05;;;;;;;20.88;86.97;97760.47;4795478;28;20138;-68
2022/05/23 05:07:17;;;;;;;9.90;6.63;;;;;;;20.92;87.21;97757.13;4774963;28;21915;-68
2022/05/23 05:09:43;;;;;;;11.65;6.45;;;;;;;20.87;87.23;97757.03;4777613;28;20043;-65
2022/05/23 05:12:09;;;;;;;8.70;5.85;;;;;;;20.71;86.33;97734.75;4756831;28;20074;-64
2022/05/23 05:14:34;;;;;;;9.93;6.32;;;;;;;20.98;85.65;97768.63;4803087;28;20710;-67
2022/05/23 05:17:01;;;;;;;8.32;6.03;;;;;;;20.96;85.71;97772.53;4768601;28;20160;-66
2022/05/23 05:19:27;;;;;;;9.93;6.25;;;;;;;20.98;85.73;97767.81;4769612;28;21616;-67
2022/05/23 05:21:53;;;;;;;9.00;6.38;;;;;;;20.82;85.99;97749.00;4772614;28;20039;-67
2022/05/23 05:24:18;;;;;;;8.55;6.30;;;;;;;20.98;86.67;97768.63;4767272;28;22291;-69
2022/05/23 05:26:44;;;;;;;9.65;6.43;;;;;;;20.94;87.09;97762.19;4769734;28;21044;-64
2022/05/23 05:29:09;;;;;;;9.40;6.15;;;;;;;21.06;86.81;97773.53;4779842;28;20034;-67
2022/05/23 05:31:42;;;;;;;8.43;6.13;;;;;;;21.05;87.30;97769.28;4795539;28;20031;-67
2022/05/23 05:34:17;;;;;;;9.52;6.13;;;;;;;21.02;87.88;97763.66;4785582;28;20376;-67
2022/05/23 05:36:45;;;;;;;9.27;5.82;;;;;;;21.11;87.95;97768.34;4784359;28;20062;-66
2022/05/23 05:39:11;;;;;;;9.95;6.20;;;;;;;21.11;88.01;97776.28;4771838;28;20715;-67
2022/05/23 05:41:41;;;;;;;7.53;5.55;;;;;;;21.05;86.58;97785.16;4820412;28;20038;-63
2022/05/23 05:44:12;;;;;;;10.30;6.03;;;;;;;20.95;86.11;97784.13;4799324;28;20034;-67
2022/05/23 05:46:40;;;;;;;9.35;5.53;;;;;;;20.97;85.76;97789.97;4832113;28;20031;-67
2022/05/23 05:49:10;;;;;;;8.80;5.70;;;;;;;20.93;85.73;97785.16;4859068;28;20023;-68
2022/05/23 05:51:37;;;;;;;10.55;5.85;;;;;;;20.87;86.49;97774.72;4792559;28;20074;-60
2022/05/23 05:54:04;;;;;;;9.50;5.88;;;;;;;20.91;85.57;97789.88;4824354;28;20050;-67
2022/05/23 05:56:30;;;;;;;9.35;5.68;;;;;;;20.88;85.20;97789.53;4840879;28;20043;-68
2022/05/23 06:02:17;;;;;;;9.95;5.80;;;;;;;20.74;84.93;97778.41;4826549;28;20670;-62
2022/05/23 06:04:43;;;;;;;9.38;5.32;;;;;;;20.59;85.42;97746.34;4802300;28;21359;-65
2022/05/23 06:12:48;;;;;;;9.73;5.40;;;;;;;20.82;84.48;97766.69;4843298;28;20050;-61
2022/05/23 06:15:14;;;;;;;7.93;5.93;;;;;;;20.67;84.63;97719.63;4784104;28;20838;-68
2022/05/23 06:17:42;;;;;;;12.70;5.53;;;;;;;20.77;84.42;97719.81;4855396;28;20039;-65
2022/05/23 06:20:09;;;;;;;10.27;5.80;;;;;;;21.10;84.38;97761.47;4857853;28;20079;-68
2022/05/23 06:22:34;;;;;;;9.90;6.15;;;;;;;21.07;84.19;97759.28;4789816;28;20038;-62
2022/05/23 06:25:02;;;;;;;10.98;5.88;;;;;;;21.19;85.21;97761.09;4836868;28;20450;-64
2022/05/23 06:27:28;;;;;;;11.60;5.85;;;;;;;21.25;84.21;97755.69;4860057;28;20729;-68
2022/05/23 06:29:53;;;;;;;11.90;6.53;;;;;;;21.18;84.95;97751.59;4827528;28;20027;-64
2022/05/23 06:32:19;;;;;;;10.15;6.00;;;;;;;21.26;85.00;97741.41;4804438;28;21463;-66
2022/05/23 06:34:44;;;;;;;11.50;6.10;;;;;;;21.22;83.86;97732.34;4864723;28;20034;-68
2022/05/23 06:37:09;;;;;;;8.98;6.38;;;;;;;21.29;83.13;97722.44;4861311;28;20031;-68
2022/05/23 06:39:35;;;;;;;9.23;5.80;;;;;;;21.36;82.92;97695.88;4803998;28;20039;-63
2022/05/23 06:42:01;;;;;;;11.85;5.38;;;;;;;21.48;82.47;97706.44;4848304;28;20086;-67
2022/05/23 06:44:26;;;;;;;9.32;5.60;;;;;;;21.56;82.23;97694.66;4868838;28;20715;-67
2022/05/23 06:46:52;;;;;;;8.23;5.78;;;;;;;21.68;81.63;97701.53;4841552;28;20742;-60
2022/05/23 06:49:17;;;;;;;10.20;6.03;;;;;;;21.71;80.85;97696.78;4820003;28;20100;-69
2022/05/23 06:51:48;;;;;;;12.13;6.00;;;;;;;21.84;80.66;97697.25;4857800;28;20035;-65
2022/05/23 06:54:15;;;;;;;9.18;5.55;;;;;;;21.92;81.38;97698.69;4797598;28;20798;-62
2022/05/23 06:56:42;;;;;;;13.18;7.35;;;;;;;21.95;79.74;97697.44;4827402;28;20038;-67
2022/05/23 06:59:09;;;;;;;9.02;5.90;;;;;;;22.13;79.86;97702.47;4856116;28;20038;-68
2022/05/23 07:01:35;;;;;;;9.30;5.68;;;;;;;22.21;79.66;97704.72;4826756;28;20031;-62
2022/05/23 07:04:01;;;;;;;10.73;6.40;;;;;;;22.14;79.81;97713.88;4794370;28;20034;-68
2022/05/23 07:12:20;;;;;;;9.35;5.30;;;;;;;21.84;79.42;97733.50;4816759;28;20042;-63
2022/05/23 07:14:46;;;;;;;8.30;4.95;;;;;;;21.73;79.94;97726.44;4806150;28;20173;-64
2022/05/23 07:17:12;;;;;;;7.88;4.97;;;;;;;21.80;80.17;97732.38;4861791;28;20846;-64
2022/05/23 07:19:41;;;;;;;8.60;4.82;;;;;;;21.80;79.87;97742.97;4858375;28;20053;-59
2022/05/23 07:22:07;;;;;;;9.20;4.82;;;;;;;21.73;79.27;97747.59;4791333;28;20047;-66
2022/05/23 07:24:33;;;;;;;9.73;4.90;;;;;;;21.71;79.23;97750.50;4844826;28;20037;-67
2022/05/23 07:26:59;;;;;;;7.95;5.07;;;;;;;21.83;78.79;97745.94;4853850;28;21534;-67
2022/05/23 07:29:25;;;;;;;8.95;5.78;;;;;;;21.80;78.92;97756.19;4809088;28;20089;-67
2022/05/23 07:31:51;;;;;;;11.93;5.60;;;;;;;21.89;78.27;97757.41;4795199;28;20045;-67
2022/05/23 07:34:18;;;;;;;8.13;5.43;;;;;;;21.94;78.15;97762.81;4854805;28;20165;-67
2022/05/23 07:36:44;;;;;;;11.13;5.25;;;;;;;22.15;75.83;97758.63;4838169;28;20043;-61
2022/05/23 07:39:11;;;;;;;9.82;5.03;;;;;;;22.32;76.19;97765.81;4779933;28;20039;-65
2022/05/23 07:41:39;;;;;;;10.32;5.07;;;;;;;22.34;75.38;97735.41;4853164;28;20237;-67
2022/05/23 07:44:06;;;;;;;8.48;6.00;;;;;;;22.82;73.29;97762.31;4850938;28;20042;-67
2022/05/23 07:46:32;;;;;;;8.43;4.82;;;;;;;23.12;72.79;97746.00;4822076;28;20147;-61
2022/05/23 07:48:58;;;;;;;12.68;5.20;;;;;;;23.31;71.32;97735.06;4813307;28;20748;-65
2022/05/23 07:51:24;;;;;;;10.35;5.22;;;;;;;23.28;70.29;97690.50;4846552;28;20042;-65
2022/05/23 08:02:04;;;;;;;8.13;4.75;;;;;;;24.73;65.33;97721.44;4850154;28;20181;-68
2022/05/23 08:04:30;;;;;;;10.60;4.82;;;;;;;24.69;64.98;97709.69;4775787;28;20031;-66
2022/05/23 08:06:56;;;;;;;8.05;4.70;;;;;;;24.99;64.42;97715.41;4851343;28;20279;-66
2022/05/23 08:09:21;;;;;;;9.60;5.18;;;;;;;24.78;64.18;97690.63;4822787;28;20027;-58
2022/05/23 08:11:49;;;;;;;7.60;4.80;;;;;;;24.95;64.64;97709.81;4799282;28;20162;-66
2022/05/23 08:14:15;;;;;;;8.90;4.70;;;;;;;24.88;64.82;97698.63;4850989;28;20130;-64
2022/05/23 08:16:41;;;;;;;7.30;4.50;;;;;;;25.31;62.38;97696.69;4848368;28;20034;-66
2022/05/23 08:19:07;;;;;;;9.02;4.57;;;;;;;25.65;59.93;97682.91;4781837;28;20386;-61
2022/05/23 08:21:34;;;;;;;11.48;5.10;;;;;;;25.99;58.61;97679.72;4823233;28;20046;-66
2022/05/23 08:24:00;;;;;;;8.25;4.38;;;;;;;26.10;57.98;97686.63;4855145;28;20757;-66
2022/05/23 08:26:27;;;;;;;9.55;4.78;;;;;;;25.97;57.71;97681.84;4818320;28;20027;-59
2022/05/23 08:28:52;;;;;;;9.30;5.25;;;;;;;26.04;58.03;97671.72;4802542;28;20118;-68
2022/05/23 08:31:18;;;;;;;9.70;5.10;;;;;;;26.29;57.63;97681.56;4845462;28;20457;-68
2022/05/23 08:33:44;;;;;;;11.55;5.38;;;;;;;26.42;56.26;97681.00;4831324;28;20031;-62
2022/05/23 08:36:10;;;;;;;10.57;5.20;;;;;;;26.72;56.31;97682.00;4772071;28;20121;-61
2022/05/23 08:38:36;;;;;;;9.50;4.90;;;;;;;26.85;56.47;97672.59;4846964;28;20169;-67
2022/05/23 08:41:18;;;;;;;8.10;4.75;;;;;;;27.08;55.38;97675.72;4841458;28;20050;-71
2022/05/23 08:43:43;;;;;;;8.52;4.88;;;;;;;26.84;55.43;97679.81;4825453;28;20034;-60
2022/05/23 08:46:12;;;;;;;11.05;5.35;;;;;;;26.58;56.23;97678.31;4797931;28;20949;-67
2022/05/23 08:48:57;;;;;;;8.52;4.70;;;;;;;26.45;56.50;97685.00;4850763;28;20035;-64
2022/05/23 08:51:33;;;;;;;12.23;5.28;;;;;;;26.41;56.06;97670.59;4842667;28;20038;-63
2022/05/23 08:57:44;;;;;;;9.05;5.55;;;;;;;26.00;57.77;97668.81;4772633;28;20051;-69
2022/05/23 09:00:16;;;;;;;12.07;6.47;;;;;;;26.00;58.11;97668.81;4847021;28;20041;-70
2022/05/23 09:02:49;;;;;;;10.98;6.15;;;;;;;25.90;58.29;97668.78;4838087;28;20104;-68
2022/05/23 09:05:18;;;;;;;12.35;7.00;;;;;;;25.81;58.28;97643.75;4772808;28;20121;-69
2022/05/23 09:08:04;;;;;;;9.98;6.75;;;;;;;26.43;57.67;97663.13;4848991;28;22106;-67
2022/05/23 09:10:54;;;;;;;10.77;7.13;;;;;;;26.13;57.95;97666.66;4846725;28;20066;-61
2022/05/23 09:13:21;;;;;;;12.02;7.40;;;;;;;25.81;59.78;97663.22;4786812;28;20073;-61
2022/05/23 09:15:50;;;;;;;12.05;7.80;;;;;;;25.58;60.21;97663.72;4807400;28;20702;-67
2022/05/23 09:18:21;;;;;;;12.80;7.70;;;;;;;25.61;60.74;97671.16;4838678;28;20049;-66
2022/05/23 09:20:50;;;;;;;11.32;7.50;;;;;;;25.48;61.90;97672.47;4826995;28;20027;-62
2022/05/23 09:23:40;;;;;;;11.65;7.45;;;;;;;25.57;61.14;97670.09;4774447;28;20039;-65
2022/05/23 09:26:13;;;;;;;9.98;7.82;;;;;;;25.46;61.77;97650.66;4818813;28;24860;-66
2022/05/23 09:28:39;;;;;;;11.02;7.60;;;;;;;25.49;62.08;97658.13;4859179;28;20092;-66
2022/05/23 09:31:15;;;;;;;11.85;8.27;;;;;;;25.28;61.87;97650.13;4848654;28;21765;-62
2022/05/23 09:33:43;;;;;;;13.63;8.98;;;;;;;25.16;62.29;97664.69;4761741;28;20873;-61
2022/05/23 09:36:25;;;;;;;14.43;8.70;;;;;;;25.18;63.31;97660.72;4831900;28;20209;-64
2022/05/23 09:38:50;;;;;;;11.88;8.13;;;;;;;24.93;63.28;97637.50;4850709;28;20879;-64
2022/05/23 09:49:52;;;;;;;11.02;8.25;;;;;;;25.04;63.99;97657.72;4836883;28;21356;-70
2022/05/23 09:52:32;;;;;;;13.45;7.85;;;;;;;25.10;63.89;97667.34;4860493;28;20800;-68
2022/05/23 09:55:01;;;;;;;9.30;7.32;;;;;;;24.86;64.88;97651.06;4817122;28;20225;-64
2022/05/23 09:57:26;;;;;;;11.07;7.72;;;;;;;25.01;64.98;97657.44;4784007;28;20092;-68
2022/05/23 10:00:18;;;;;;;11.80;8.23;;;;;;;24.86;64.80;97651.06;4861285;28;22479;-65
2022/05/23 10:03:02;;;;;;;9.98;7.55;;;;;;;24.81;65.06;97647.56;4849195;28;20058;-67
2022/05/23 10:05:33;;;;;;;8.70;6.95;;;;;;;24.81;65.04;97650.25;4852340;28;20126;-65
2022/05/23 10:08:02;;;;;;;12.38;8.25;;;;;;;24.50;65.24;97613.66;4778464;28;20039;-67
2022/05/23 10:10:28;;;;;;;10.90;7.57;;;;;;;24.64;65.02;97613.22;4827361;28;20796;-65
2022/05/23 10:13:13;;;;;;;9.93;6.82;;;;;;;24.84;64.52;97623.13;4858183;28;25632;-64
2022/05/23 10:15:47;;;;;;;9.93;7.38;;;;;;;24.97;64.19;97640.44;4838357;28;20018;-61
2022/05/23 10:18:46;;;;;;;9.27;6.68;;;;;;;25.19;63.76;97648.19;4772940;28;20225;-66
2022/05/23 10:21:26;;;;;;;10.18;6.63;;;;;;;25.19;63.63;97658.84;4802796;28;20702;-68
2022/05/23 10:24:23;;;;;;;14.05;7.30;;;;;;;24.76;63.34;97632.41;4855197;28;20035;-67
2022/05/23 10:26:51;;;;;;;11.15;7.55;;;;;;;24.88;63.93;97642.78;4860957;28;20047;-68
2022/05/23 10:29:44;;;;;;;11.20;7.70;;;;;;;24.97;63.83;97635.94;4824121;28;20074;-63
2022/05/23 10:32:12;;;;;;;14.85;8.90;;;;;;;25.01;63.36;97636.19;4775644;28;20597;-61
2022/05/23 10:34:43;;;;;;;9.57;6.72;;;;;;;25.10;62.70;97647.94;4815514;28;21709;-65
2022/05/23 10:37:20;;;;;;;13.00;6.57;;;;;;;24.99;62.96;97651.59;4833330;28;20044;-65
2022/05/23 10:42:57;;;;;;;10.35;5.60;;;;;;;24.87;62.63;97644.66;4790727;28;20053;-62
2022/05/23 10:45:48;;;;;;;11.30;5.72;;;;;;;24.88;62.89;97643.63;4793556;28;20072;-67
2022/05/23 10:48:44;;;;;;;8.57;5.85;;;;;;;24.83;62.71;97634.81;4839195;28;20031;-67
2022/05/23 10:51:29;;;;;;;9.35;5.75;;;;;;;24.84;62.55;97639.06;4856499;28;21995;-68
2022/05/23 10:54:04;;;;;;;8.10;5.70;;;;;;;24.89;61.95;97633.78;4771474;28;20180;-71
2022/05/23 10:57:10;;;;;;;10.27;6.38;;;;;;;24.91;61.52;97615.69;4884173;28;20105;-61
2022/05/23 10:59:51;;;;;;;12.45;5.68;;;;;;;25.09;61.46;97639.13;4837767;28;20035;-63
2022/05/23 11:02:21;;;;;;;8.13;4.85;;;;;;;25.15;61.58;97639.94;4772272;28;21542;-68
2022/05/23 11:05:25;;;;;;;7.93;5.28;;;;;;;25.31;61.11;97644.25;4777515;28;20134;-63
2022/05/23 11:08:00;;;;;;;6.50;4.60;;;;;;;25.24;60.86;97608.34;4856765;28;20050;-66
2022/05/23 11:10:34;;;;;;;8.70;5.18;;;;;;;25.26;60.13;97633.63;4857024;28;20057;-66
2022/05/23 11:13:35;;;;;;;11.13;4.93;;;;;;;25.43;59.40;97633.38;4810034;28;20022;-61
2022/05/23 11:16:18;;;;;;;7.95;4.85;;;;;;;25.40;60.05;97611.81;4778942;28;20042;-66
2022/05/23 11:18:56;;;;;;;8.73;5.40;;;;;;;25.38;58.75;97622.72;4825378;28;20074;-65
2022/05/23 11:21:38;;;;;;;9.50;4.82;;;;;;;25.24;59.17;97611.78;4843658;28;20046;-62
2022/05/23 11:24:20;;;;;;;6.32;4.38;;;;;;;25.16;58.75;97616.81;4772396;28;20805;-62
2022/05/23 11:26:49;;;;;;;8.73;4.70;;;;;;;25.28;58.18;97601.44;4816045;28;20111;-65
2022/05/23 11:35:01;;;;;;;7.72;3.67;;;;;;;25.57;56.76;97604.38;4836126;28;20713;-59
2022/05/23 11:40:06;;;;;;;6.72;3.97;;;;;;;25.59;55.91;97602.25;4852838;28;21895;-62
2022/05/23 11:43:02;;;;;;;7.80;3.45;;;;;;;25.56;55.73;97610.75;4855516;28;20686;-62
2022/05/23 11:51:12;;;;;;;6.43;3.80;;;;;;;25.49;56.04;97576.44;4799860;28;20085;-62
2022/05/23 11:53:42;;;;;;;6.07;3.58;;;;;;;25.80;55.71;97596.91;4851630;28;20158;-60
2022/05/23 11:56:10;;;;;;;7.07;3.50;;;;;;;25.89;54.76;97596.09;4852444;28;20069;-60
2022/05/23 11:58:48;;;;;;;6.97;3.95;;;;;;;26.03;54.67;97579.56;4776732;28;20035;-58
2022/05/23 12:01:16;;;;;;;7.78;3.92;;;;;;;26.16;53.89;97587.03;4822571;28;21393;-63
2022/05/23 12:03:50;;;;;;;8.18;3.70;;;;;;;26.18;54.64;97584.09;4847007;28;20043;-65
2022/05/23 12:06:23;;;;;;;6.07;3.45;;;;;;;26.20;53.87;97582.75;4785432;28;20129;-59
2022/05/23 12:09:02;;;;;;;7.72;3.80;;;;;;;26.03;54.66;97571.59;4825291;28;20043;-62
2022/05/23 12:11:31;;;;;;;8.18;3.25;;;;;;;26.05;54.40;97566.81;4834318;28;20035;-61
2022/05/23 12:14:17;;;;;;;8.05;3.58;;;;;;;25.90;54.86;97547.09;4850316;28;20671;-59
2022/05/23 12:16:56;;;;;;;7.47;3.88;;;;;;;25.75;56.25;97527.69;4781413;28;20153;-58
2022/05/23 12:19:39;;;;;;;7.22;3.30;;;;;;;25.88;55.51;97549.25;4803962;28;20785;-64
2022/05/23 12:22:22;;;;;;;9.68;3.90;;;;;;;25.72;56.35;97547.69;4851530;28;20042;-61
2022/05/23 12:25:18;;;;;;;6.55;3.80;;;;;;;25.70;56.81;97542.63;4858742;28;20070;-61
2022/05/23 12:27:43;;;;;;;12.40;4.43;;;;;;;25.78;55.73;97533.28;4795853;28;20035;-62
2022/05/23 12:30:21;;;;;;;7.18;4.35;;;;;;;25.82;56.22;97541.53;4806937;28;20137;-63
2022/05/23 12:32:51;;;;;;;7.72;4.20;;;;;;;25.92;56.75;97528.19;4852319;28;20134;-63
2022/05/23 12:35:19;;;;;;;9.00;4.38;;;;;;;25.94;56.42;97530.59;4852927;28;20041;-60
2022/05/23 12:37:57;;;;;;;9.40;4.25;;;;;;;25.93;57.00;97529.81;4796967;28;20030;-58
2022/05/23 12:40:31;;;;;;;7.55;3.85;;;;;;;26.01;56.62;97517.81;4817830;28;20038;-62
2022/05/23 12:43:26;;;;;;;6.30;3.83;;;;;;;26.05;56.73;97511.66;4839681;28;20039;-60
2022/05/23 12:46:04;;;;;;;7.47;3.90;;;;;;;25.51;56.77;97459.88;4863452;28;20073;-63
2022/05/23 12:48:46;;;;;;;7.13;4.10;;;;;;;26.06;57.38;97496.47;4830071;28;20030;-61
2022/05/23 12:51:38;;;;;;;7.72;4.05;;;;;;;26.14;56.67;97495.94;4760070;28;20076;-60
2022/05/23 12:54:20;;;;;;;9.25;4.25;;;;;;;26.16;56.67;97496.44;4817470;28;20035;-61
2022/05/23 12:57:04;;;;;;;8.65;4.28;;;;;;;26.06;56.31;97493.81;4846358;28;20161;-63
2022/05/23 12:59:40;;;;;;;8.05;4.70;;;;;;;26.00;56.15;97492.25;4857110;28;20038;-62
2022/05/23 13:02:23;;;;;;;8.65;5.22;;;;;;;26.01;56.19;97491.97;4819509;28;20034;-58